Time;durP1;ratioP1;P1;durP2;ratioP2;P2;SDS_P1;SDS_P2;PMS_P1;PMS_P2;Temp;Humidity;BMP_temperature;BMP_pressure;BME280_temperature;BME280_humidity;BME280_pressure;Samples;Min_cycle;Max_cycle;Signal;HPM_P1;HPM_P2
2022/06/28 00:01:20;;;;;;;3.73;2.10;;;22.30;57.60;23.30;101300.00;;;;5066333;28;20173;-43
2022/06/28 00:03:45;;;;;;;4.80;2.00;;;22.20;57.50;23.20;101302.00;;;;5066092;28;20812;-44
2022/06/28 00:06:11;;;;;;;1.90;1.80;;;22.30;57.50;23.20;101301.00;;;;5065612;28;20682;-44
2022/06/28 00:08:37;;;;;;;3.20;2.10;;;22.20;57.50;23.20;101294.00;;;;5067847;28;20626;-44
2022/06/28 00:11:03;;;;;;;4.00;2.00;;;22.20;57.50;23.20;101294.00;;;;5069876;28;20823;-44
2022/06/28 00:13:28;;;;;;;2.47;2.10;;;22.20;57.50;23.20;101300.00;;;;5070157;28;20178;-44
2022/06/28 00:16:06;;;;;;;3.23;2.30;;;22.20;57.50;23.10;101273.00;;;;5069712;28;20194;-44
2022/06/28 00:18:39;;;;;;;3.83;2.47;;;22.20;57.50;23.10;101279.00;;;;5069605;28;20162;-44
2022/06/28 00:21:08;;;;;;;2.10;2.00;;;22.10;57.40;23.10;101289.00;;;;5068150;28;20166;-45
2022/06/28 00:23:35;;;;;;;2.80;2.00;;;22.20;57.40;23.10;101285.00;;;;5069160;28;20185;-43
2022/06/28 00:26:00;;;;;;;4.53;2.53;;;22.10;57.40;23.10;101291.00;;;;5069131;28;20250;-43
2022/06/28 00:28:26;;;;;;;3.47;2.20;;;22.10;57.30;23.10;101274.00;;;;5067809;28;20189;-43
2022/06/28 00:30:52;;;;;;;2.93;2.10;;;22.10;57.40;23.00;101292.00;;;;5067880;28;20161;-44
2022/06/28 00:33:18;;;;;;;3.33;2.20;;;22.00;57.30;23.00;101286.00;;;;5069127;28;20249;-44
2022/06/28 00:35:44;;;;;;;3.47;2.10;;;22.00;57.30;23.00;101281.00;;;;5067830;28;20266;-43
2022/06/28 00:38:09;;;;;;;2.30;2.00;;;22.00;57.30;23.00;101296.00;;;;5068706;28;20616;-43
2022/06/28 00:40:51;;;;;;;2.60;1.97;;;22.00;57.30;23.00;101280.00;;;;5068666;28;20273;-44
2022/06/28 00:43:17;;;;;;;3.10;1.90;;;22.00;57.30;23.00;101275.00;;;;5067891;28;20170;-44
2022/06/28 00:45:43;;;;;;;2.87;2.10;;;22.00;57.40;22.90;101282.00;;;;5067492;28;20181;-43
2022/06/28 00:48:12;;;;;;;3.37;2.10;;;22.00;57.30;22.90;101292.00;;;;5068608;28;20170;-44
2022/06/28 00:50:37;;;;;;;2.87;2.27;;;21.90;57.30;22.90;101292.00;;;;5067553;28;20264;-45
2022/06/28 00:53:15;;;;;;;4.27;2.40;;;21.90;57.30;22.90;101288.00;;;;5067589;28;20201;-44
2022/06/28 00:55:41;;;;;;;2.53;2.13;;;21.90;57.30;22.90;101293.00;;;;5068441;28;20243;-43
2022/06/28 00:58:08;;;;;;;3.40;1.97;;;21.90;57.30;22.90;101287.00;;;;5068604;28;20169;-44
2022/06/28 01:00:43;;;;;;;2.20;1.90;;;21.90;57.30;22.90;101292.00;;;;5067873;28;20236;-44
2022/06/28 01:03:11;;;;;;;2.47;2.03;;;21.90;57.30;22.80;101287.00;;;;5069322;28;20161;-42
2022/06/28 01:05:36;;;;;;;2.90;2.00;;;21.80;57.20;22.80;101294.00;;;;5067468;28;20185;-44
2022/06/28 01:08:04;;;;;;;3.07;2.10;;;21.80;57.20;22.80;101290.00;;;;5068477;28;20303;-43
2022/06/28 01:10:30;;;;;;;2.73;1.90;;;21.80;57.20;22.70;101294.00;;;;5068644;28;20252;-44
2022/06/28 01:12:56;;;;;;;2.10;1.90;;;21.80;57.20;22.80;101282.00;;;;5068555;28;20219;-44
2022/06/28 01:15:22;;;;;;;2.13;1.90;;;21.80;57.20;22.70;101284.00;;;;5068491;28;20696;-43
2022/06/28 01:17:47;;;;;;;3.00;2.27;;;21.80;57.20;22.70;101285.00;;;;5068166;28;20825;-44
2022/06/28 01:20:13;;;;;;;1.90;1.70;;;21.70;57.10;22.70;101287.00;;;;5068320;28;20208;-44
2022/06/28 01:22:40;;;;;;;3.27;1.90;;;21.70;57.10;22.70;101289.00;;;;5050276;28;20230;-44
2022/06/28 01:25:08;;;;;;;3.07;2.00;;;21.70;57.10;22.70;101289.00;;;;5068134;28;20190;-45
2022/06/28 01:27:34;;;;;;;2.20;2.00;;;21.70;57.10;22.70;101292.00;;;;5068208;28;20192;-43
2022/06/28 01:30:02;;;;;;;2.67;2.20;;;21.70;57.10;22.70;101301.00;;;;5068006;28;20223;-44
2022/06/28 01:32:28;;;;;;;2.70;2.23;;;21.60;57.10;22.70;101306.00;;;;5066881;28;20170;-44
2022/06/28 01:34:54;;;;;;;4.00;2.17;;;21.60;57.10;22.60;101292.00;;;;5067853;28;20698;-44
2022/06/28 01:37:20;;;;;;;1.97;1.87;;;21.60;57.10;22.60;101302.00;;;;5049762;28;20174;-44
2022/06/28 01:39:45;;;;;;;2.50;2.30;;;21.60;57.00;22.60;101314.00;;;;5067659;28;20682;-44
2022/06/28 01:42:11;;;;;;;2.30;2.03;;;21.60;57.00;22.60;101310.00;;;;5067812;28;20177;-44
2022/06/28 01:44:38;;;;;;;2.33;1.90;;;21.60;57.10;22.50;101314.00;;;;5050264;28;20192;-44
2022/06/28 01:47:06;;;;;;;2.20;2.00;;;21.60;57.10;22.50;101319.00;;;;5050021;28;20177;-43
2022/06/28 01:49:31;;;;;;;3.00;2.33;;;21.50;57.00;22.50;101321.00;;;;5066230;28;20178;-43
2022/06/28 01:51:57;;;;;;;2.83;2.10;;;21.50;57.10;22.50;101328.00;;;;5067262;28;20184;-44
2022/06/28 01:54:23;;;;;;;3.73;1.90;;;21.50;57.10;22.50;101322.00;;;;5067469;28;20189;-43
2022/06/28 01:56:48;;;;;;;2.30;2.10;;;21.50;57.00;22.50;101314.00;;;;5067468;28;20180;-44
2022/06/28 01:59:14;;;;;;;3.10;2.13;;;21.50;57.10;22.50;101318.00;;;;5067454;28;20681;-43
2022/06/28 02:01:40;;;;;;;2.97;2.20;;;21.50;57.10;22.40;101321.00;;;;5066471;28;20179;-43
2022/06/28 02:04:24;;;;;;;2.17;2.07;;;21.40;57.10;22.40;101319.00;;;;5067597;28;20169;-43
2022/06/28 02:06:50;;;;;;;2.30;2.10;;;21.40;57.10;22.40;101325.00;;;;5067364;28;20180;-43
2022/06/28 02:09:15;;;;;;;2.90;2.60;;;21.40;57.10;22.40;101332.00;;;;5067417;28;20189;-44
2022/06/28 02:11:41;;;;;;;3.50;2.50;;;21.30;57.10;22.40;101332.00;;;;5067219;28;20170;-44
2022/06/28 02:14:07;;;;;;;2.33;2.13;;;21.40;57.80;22.40;101349.00;;;;5067217;28;20179;-43
2022/06/28 02:16:33;;;;;;;2.40;2.20;;;21.40;57.10;22.30;101346.00;;;;5067265;28;20178;-43
2022/06/28 02:18:58;;;;;;;3.10;2.23;;;21.30;57.10;22.30;101335.00;;;;5066650;28;20197;-44
2022/06/28 02:21:24;;;;;;;3.60;2.57;;;21.30;57.10;22.30;101345.00;;;;5067238;28;20178;-44
2022/06/28 02:23:50;;;;;;;2.50;2.30;;;21.30;57.10;22.30;101305.00;;;;5067674;28;20213;-43
2022/06/28 02:26:16;;;;;;;3.23;2.37;;;21.30;57.20;22.30;101339.00;;;;5049273;28;20197;-43
2022/06/28 02:28:42;;;;;;;2.80;2.23;;;21.30;57.80;22.20;101350.00;;;;5066702;28;20174;-43
2022/06/28 02:31:11;;;;;;;3.37;2.10;;;21.20;57.10;22.20;101279.00;;;;5066396;28;20634;-52
2022/06/28 02:33:37;;;;;;;3.27;2.10;;;21.20;57.00;22.20;101341.00;;;;5067129;28;20173;-43
2022/06/28 02:41:32;;;;;;;3.90;2.80;;;21.20;57.30;22.20;101346.00;;;;5091738;28;20719;-45
2022/06/28 02:43:58;;;;;;;2.87;2.53;;;21.20;57.40;22.10;101342.00;;;;5073804;28;20169;-43
2022/06/28 02:46:24;;;;;;;3.93;2.47;;;21.10;57.30;22.10;101349.00;;;;5066760;28;20185;-44
2022/06/28 02:48:50;;;;;;;2.80;2.60;;;21.10;57.30;22.10;101362.00;;;;5066590;28;20264;-43
2022/06/28 02:51:15;;;;;;;4.97;2.83;;;21.10;57.30;22.10;101366.00;;;;5066541;28;20177;-44
2022/06/28 02:53:41;;;;;;;3.07;2.60;;;21.10;57.30;22.10;101365.00;;;;5066664;28;20177;-44
2022/06/28 02:56:07;;;;;;;2.37;2.17;;;21.10;57.30;22.10;101372.00;;;;5066529;28;20220;-44
2022/06/28 02:58:33;;;;;;;2.30;2.07;;;21.10;57.20;22.00;101367.00;;;;5066241;28;20185;-43
2022/06/28 03:00:58;;;;;;;2.73;2.10;;;21.10;57.20;22.00;101370.00;;;;5066661;28;20177;-44
2022/06/28 03:03:24;;;;;;;2.43;2.20;;;21.00;57.20;22.00;101373.00;;;;5066750;28;20162;-43
2022/06/28 03:05:51;;;;;;;4.67;2.30;;;21.10;57.30;22.00;101369.00;;;;5067075;28;20201;-48
2022/06/28 03:08:16;;;;;;;2.67;2.47;;;21.00;57.20;21.90;101375.00;;;;5065465;28;20201;-44
2022/06/28 03:10:42;;;;;;;4.07;2.93;;;21.10;57.50;21.90;101379.00;;;;5065738;28;20215;-44
2022/06/28 03:13:08;;;;;;;3.27;2.43;;;21.00;57.50;21.90;101378.00;;;;5076767;28;20218;-43
2022/06/28 03:15:35;;;;;;;3.80;2.60;;;21.00;57.40;21.90;101365.00;;;;5083065;28;20197;-44
2022/06/28 03:18:01;;;;;;;3.60;2.60;;;20.80;57.40;21.90;101367.00;;;;5086319;28;20283;-43
2022/06/28 03:20:28;;;;;;;2.87;2.40;;;20.80;57.80;21.80;101377.00;;;;5086119;28;20196;-43
2022/06/28 03:22:55;;;;;;;5.87;2.30;;;20.80;57.40;21.80;101369.00;;;;5084658;28;20195;-44
2022/06/28 03:25:20;;;;;;;3.00;2.60;;;20.90;57.50;21.80;101382.00;;;;5086625;28;20279;-43
2022/06/28 03:27:46;;;;;;;3.93;3.20;;;20.90;57.50;21.80;101392.00;;;;5087131;28;20271;-43
2022/06/28 03:30:12;;;;;;;3.63;2.73;;;20.90;57.60;21.80;101380.00;;;;5087364;28;20234;-43
2022/06/28 03:32:38;;;;;;;4.30;2.77;;;20.80;57.40;21.80;101394.00;;;;5087703;28;20172;-42
2022/06/28 03:35:05;;;;;;;2.50;2.30;;;20.90;57.50;21.80;101384.00;;;;5087390;28;20649;-44
2022/06/28 03:37:30;;;;;;;2.40;2.20;;;20.90;57.50;21.80;101393.00;;;;5087166;28;20169;-43
2022/06/28 03:39:56;;;;;;;2.63;2.43;;;20.80;57.40;21.80;101400.00;;;;5087106;28;20215;-44
2022/06/28 03:42:22;;;;;;;3.53;2.60;;;20.80;57.40;21.80;101419.00;;;;5087134;28;20160;-43
2022/06/28 03:44:47;;;;;;;2.40;2.20;;;20.80;57.40;21.80;101409.00;;;;5091193;28;20283;-44
2022/06/28 03:47:13;;;;;;;2.40;2.07;;;20.80;57.40;21.70;101322.00;;;;5091514;28;20443;-44
2022/06/28 03:49:39;;;;;;;2.80;2.23;;;20.80;57.40;21.70;101398.00;;;;5091424;28;20200;-43
2022/06/28 03:52:05;;;;;;;2.40;2.20;;;20.80;57.40;21.70;101401.00;;;;5090971;28;20218;-43
2022/06/28 03:54:30;;;;;;;4.50;2.47;;;20.70;57.30;21.70;101397.00;;;;5091701;28;20227;-44
2022/06/28 03:56:56;;;;;;;4.97;2.97;;;20.70;57.30;21.70;101407.00;;;;5092261;28;20176;-44
2022/06/28 03:59:22;;;;;;;3.37;2.47;;;20.70;57.30;21.70;101399.00;;;;5091362;28;20210;-44
2022/06/28 04:01:48;;;;;;;3.80;3.40;;;20.70;57.30;21.70;101403.00;;;;5091096;28;20259;-44
2022/06/28 04:04:13;;;;;;;4.40;3.03;;;20.70;57.70;21.60;101406.00;;;;5090912;28;20234;-44
2022/06/28 04:06:39;;;;;;;3.77;3.07;;;20.60;57.60;21.60;101408.00;;;;5091275;28;20166;-44
2022/06/28 04:09:05;;;;;;;3.20;2.77;;;20.60;57.90;21.60;101411.00;;;;5090554;28;20246;-44
2022/06/28 04:11:30;;;;;;;4.70;3.10;;;20.60;57.80;21.60;101427.00;;;;5090787;28;20704;-44
2022/06/28 04:13:56;;;;;;;3.03;2.40;;;20.50;57.70;21.50;101422.00;;;;5091088;28;20786;-43
2022/06/28 04:16:22;;;;;;;3.73;2.47;;;20.50;57.70;21.50;101417.00;;;;5090911;28;20217;-43
2022/06/28 04:18:48;;;;;;;4.17;3.00;;;20.60;57.70;21.50;101424.00;;;;5090720;28;20205;-44
2022/06/28 04:21:15;;;;;;;3.80;3.10;;;20.50;57.70;21.50;101431.00;;;;5090808;28;21030;-43
2022/06/28 04:23:41;;;;;;;3.40;2.90;;;20.50;57.60;21.50;101429.00;;;;5089457;28;20183;-42
2022/06/28 04:26:07;;;;;;;3.97;3.30;;;20.50;57.70;21.50;101428.00;;;;5090433;28;20754;-45
2022/06/28 04:28:33;;;;;;;3.50;3.20;;;20.50;58.00;21.50;101434.00;;;;5090627;28;20256;-43
2022/06/28 04:30:59;;;;;;;4.33;2.57;;;20.50;58.00;21.50;101428.00;;;;5090599;28;20622;-43
2022/06/28 04:33:25;;;;;;;3.80;3.33;;;20.50;57.70;21.50;101435.00;;;;5090549;28;20244;-43
2022/06/28 04:35:51;;;;;;;5.20;3.83;;;20.50;58.00;21.50;101437.00;;;;5090541;28;20196;-44
2022/06/28 04:38:17;;;;;;;5.77;3.13;;;20.50;58.30;21.40;101439.00;;;;5090737;28;20170;-44
2022/06/28 04:40:43;;;;;;;4.40;3.40;;;20.50;58.00;21.40;101441.00;;;;5090642;28;20207;-43
2022/06/28 04:43:09;;;;;;;3.97;2.70;;;20.50;58.10;21.40;101439.00;;;;5089181;28;20178;-44
2022/06/28 04:45:34;;;;;;;3.00;2.50;;;20.40;58.00;21.40;101431.00;;;;5090737;28;20189;-43
2022/06/28 04:48:00;;;;;;;2.60;2.40;;;20.50;58.10;21.40;101417.00;;;;5090485;28;20528;-44
2022/06/28 04:50:26;;;;;;;4.43;2.90;;;20.40;58.10;21.30;101426.00;;;;5090577;28;20238;-44
2022/06/28 04:52:52;;;;;;;3.00;2.70;;;20.40;58.30;21.30;101408.00;;;;5088587;28;20175;-43
2022/06/28 04:55:18;;;;;;;3.23;2.93;;;20.40;58.90;21.30;101427.00;;;;5089993;28;20245;-44
2022/06/28 04:57:43;;;;;;;3.00;2.80;;;20.40;58.40;21.30;101433.00;;;;5087579;28;20177;-44
2022/06/28 05:00:10;;;;;;;3.63;2.77;;;20.40;58.30;21.30;101425.00;;;;5089078;28;20274;-44
2022/06/28 05:02:37;;;;;;;2.70;2.50;;;20.40;58.40;21.30;101426.00;;;;5089965;28;20699;-44
2022/06/28 05:05:07;;;;;;;5.17;2.90;;;20.40;58.40;21.20;101428.00;;;;5088413;28;20564;-45
2022/06/28 05:07:33;;;;;;;4.43;3.37;;;20.40;58.50;21.20;101432.00;;;;5089593;28;20171;-43
2022/06/28 05:09:59;;;;;;;3.27;2.97;;;20.40;58.50;21.20;101432.00;;;;5089484;28;20161;-44
2022/06/28 05:12:25;;;;;;;3.63;2.80;;;20.40;58.50;21.20;101438.00;;;;5088627;28;20519;-43
2022/06/28 05:14:51;;;;;;;3.73;2.87;;;20.40;58.60;21.20;101411.00;;;;5089843;28;20216;-44
2022/06/28 05:17:17;;;;;;;3.90;2.60;;;20.40;59.20;21.10;101430.00;;;;5089452;28;20173;-43
2022/06/28 05:19:42;;;;;;;2.70;2.50;;;20.40;58.70;21.10;101415.00;;;;5090088;28;20201;-44
2022/06/28 05:22:08;;;;;;;3.20;2.80;;;20.40;58.80;21.10;101423.00;;;;5089914;28;20651;-44
2022/06/28 05:24:35;;;;;;;3.63;2.93;;;20.40;59.10;21.10;101399.00;;;;5089719;28;20629;-44
2022/06/28 05:27:01;;;;;;;2.97;2.60;;;20.40;59.00;21.10;101400.00;;;;5089649;28;20166;-44
2022/06/28 05:29:27;;;;;;;2.40;2.20;;;20.40;59.20;21.10;101413.00;;;;5089488;28;20177;-44
2022/06/28 05:31:52;;;;;;;3.00;2.70;;;20.40;59.20;21.10;101418.00;;;;5091503;28;20257;-45
2022/06/28 05:34:18;;;;;;;3.53;2.80;;;20.30;59.10;21.10;101423.00;;;;5090960;28;20166;-43
2022/06/28 05:36:44;;;;;;;3.37;2.70;;;20.30;59.40;21.10;101425.00;;;;5089704;28;20190;-44
2022/06/28 05:39:10;;;;;;;3.03;2.47;;;20.30;59.40;21.10;101422.00;;;;5089304;28;20260;-44
2022/06/28 05:41:36;;;;;;;2.80;2.60;;;20.30;59.40;21.10;101426.00;;;;5090943;28;20177;-43
2022/06/28 05:44:01;;;;;;;4.07;3.10;;;20.30;59.40;21.10;101419.00;;;;5097170;28;20177;-43
2022/06/28 05:46:28;;;;;;;3.53;3.23;;;20.30;60.00;21.10;101423.00;;;;5094908;28;20153;-42
2022/06/28 05:48:54;;;;;;;5.60;3.30;;;20.30;60.00;21.10;101420.00;;;;5090098;28;20232;-45
2022/06/28 05:51:20;;;;;;;3.67;2.70;;;20.30;60.40;21.10;101417.00;;;;5091673;28;20177;-46
2022/06/28 05:53:45;;;;;;;5.17;3.40;;;20.30;60.40;21.10;101417.00;;;;5094531;28;20809;-43
2022/06/28 05:56:11;;;;;;;4.10;3.37;;;20.30;61.20;21.10;101414.00;;;;5110017;28;20211;-43
2022/06/28 05:58:37;;;;;;;3.23;2.87;;;20.30;61.50;20.80;101418.00;;;;5108615;28;20197;-44
2022/06/28 06:01:03;;;;;;;3.43;3.13;;;20.20;60.90;21.10;101419.00;;;;5091578;28;20889;-44
2022/06/28 06:03:29;;;;;;;3.13;2.90;;;20.30;61.30;21.10;101415.00;;;;5087965;28;20661;-44
2022/06/28 06:05:55;;;;;;;3.90;3.20;;;20.20;62.20;21.10;101421.00;;;;5088577;28;20180;-43
2022/06/28 06:08:21;;;;;;;3.53;3.23;;;20.20;61.50;21.10;101420.00;;;;5088972;28;20173;-44
2022/06/28 06:10:46;;;;;;;3.73;2.90;;;20.20;61.50;21.10;101426.00;;;;5087777;28;20194;-44
2022/06/28 06:13:12;;;;;;;4.47;3.70;;;20.30;61.60;21.10;101420.00;;;;5088708;28;20175;-44
2022/06/28 06:15:38;;;;;;;4.10;3.70;;;20.30;63.00;21.10;101435.00;;;;5088732;28;20276;-44
2022/06/28 06:18:04;;;;;;;3.77;3.47;;;20.20;63.60;21.10;101437.00;;;;5090050;28;20274;-44
2022/06/28 06:20:29;;;;;;;4.07;3.77;;;20.20;63.00;21.10;101428.00;;;;5088527;28;20209;-44
2022/06/28 06:22:55;;;;;;;4.03;3.40;;;20.20;63.60;21.10;101433.00;;;;5087452;28;20261;-44
2022/06/28 06:25:21;;;;;;;3.50;2.90;;;20.10;63.40;21.10;101435.00;;;;5088713;28;20894;-44
2022/06/28 06:27:47;;;;;;;4.37;3.47;;;20.20;62.80;21.00;101427.00;;;;5088763;28;20163;-44
2022/06/28 06:30:13;;;;;;;2.90;2.70;;;20.20;64.10;21.00;101439.00;;;;5088520;28;20170;-43
2022/06/28 06:32:38;;;;;;;3.27;2.97;;;20.10;63.10;21.00;101438.00;;;;5089329;28;20168;-44
2022/06/28 06:35:05;;;;;;;3.90;3.60;;;20.10;62.70;21.00;101448.00;;;;5088557;28;20185;-45
2022/06/28 06:37:31;;;;;;;3.90;3.50;;;20.10;63.80;21.00;101446.00;;;;5089131;28;20235;-43
2022/06/28 06:39:57;;;;;;;3.27;2.97;;;20.10;63.80;21.00;101429.00;;;;5088585;28;20196;-43
2022/06/28 06:42:22;;;;;;;3.20;2.90;;;20.10;63.40;21.00;101444.00;;;;5088174;28;20160;-44
2022/06/28 06:44:48;;;;;;;2.60;2.40;;;20.20;62.70;21.00;101446.00;;;;5088278;28;20613;-43
2022/06/28 06:47:14;;;;;;;4.63;2.80;;;20.10;63.10;21.00;101449.00;;;;5088346;28;20725;-43
2022/06/28 06:49:39;;;;;;;3.10;2.77;;;20.10;62.90;21.00;101448.00;;;;5088349;28;20177;-43
2022/06/28 06:52:06;;;;;;;3.23;2.70;;;20.00;62.70;21.00;101451.00;;;;5087650;28;20165;-43
2022/06/28 06:54:31;;;;;;;2.90;2.57;;;20.00;62.60;20.90;101441.00;;;;5088331;28;20287;-43
2022/06/28 06:56:57;;;;;;;3.00;2.80;;;20.10;62.90;21.00;101443.00;;;;5088628;28;20314;-43
2022/06/28 06:59:23;;;;;;;2.40;2.20;;;20.10;62.70;20.90;101449.00;;;;5088094;28;20681;-43
2022/06/28 07:01:49;;;;;;;2.77;2.50;;;20.00;62.60;20.90;101418.00;;;;5087802;28;20165;-43
2022/06/28 07:04:15;;;;;;;3.40;2.53;;;20.10;63.10;20.90;101446.00;;;;5087540;28;20149;-43
2022/06/28 07:06:41;;;;;;;3.17;2.50;;;20.10;63.00;21.00;101449.00;;;;5085429;28;20173;-47
2022/06/28 07:09:07;;;;;;;2.83;2.47;;;20.10;62.60;21.00;101447.00;;;;4995068;28;20191;-43
2022/06/28 07:11:34;;;;;;;2.83;2.50;;;20.10;64.10;21.00;101443.00;;;;5087723;28;20180;-43
2022/06/28 07:14:00;;;;;;;3.50;2.80;;;20.20;63.30;21.00;101439.00;;;;5087896;28;20206;-43
2022/06/28 07:16:26;;;;;;;3.20;2.60;;;20.20;62.80;21.00;101443.00;;;;5087958;28;20180;-43
2022/06/28 07:18:52;;;;;;;3.10;2.40;;;20.20;63.50;21.00;101450.00;;;;5087693;28;20171;-43
2022/06/28 07:21:18;;;;;;;3.37;2.67;;;20.20;62.40;21.00;101429.00;;;;5089013;28;20172;-43
2022/06/28 07:23:43;;;;;;;4.33;2.20;;;20.10;62.20;21.00;101430.00;;;;5089026;28;20208;-42
2022/06/28 07:26:09;;;;;;;3.90;2.70;;;20.20;63.50;21.00;101432.00;;;;5088893;28;20189;-44
2022/06/28 07:28:35;;;;;;;3.70;2.60;;;20.10;62.30;21.00;101431.00;;;;5087522;28;20193;-43
2022/06/28 07:31:01;;;;;;;3.50;2.60;;;20.20;62.40;21.10;101428.00;;;;5087802;28;20204;-43
2022/06/28 07:33:27;;;;;;;3.50;2.30;;;20.20;62.00;21.10;101424.00;;;;5087871;28;20258;-43
2022/06/28 07:35:53;;;;;;;2.90;2.20;;;20.20;62.90;21.00;101432.00;;;;5094430;28;20189;-43
2022/06/28 07:38:19;;;;;;;3.47;2.30;;;20.20;62.40;21.10;101432.00;;;;5107987;28;20171;-44
2022/06/28 07:40:45;;;;;;;3.70;2.50;;;20.20;61.90;21.10;101440.00;;;;5107995;28;20205;-43
2022/06/28 07:43:10;;;;;;;2.70;2.30;;;20.10;61.50;21.10;101438.00;;;;5108072;28;20165;-43
2022/06/28 07:45:36;;;;;;;2.97;2.40;;;20.20;61.80;21.10;101415.00;;;;5107949;28;20241;-43
2022/06/28 07:48:06;;;;;;;2.77;2.20;;;20.10;61.40;21.10;101439.00;;;;5108079;28;20270;-43
2022/06/28 07:53:16;;;;;;;4.13;2.20;;;20.10;63.20;21.10;101445.00;;;;5108185;28;20410;-43
2022/06/28 07:55:42;;;;;;;3.03;2.17;;;20.10;62.20;21.10;101435.00;;;;5107853;28;20184;-43
2022/06/28 07:58:08;;;;;;;3.07;2.00;;;20.10;61.50;21.10;101428.00;;;;5107947;28;20169;-43
2022/06/28 08:00:34;;;;;;;3.77;2.10;;;20.10;63.50;21.10;101430.00;;;;5107300;28;20192;-43
2022/06/28 08:02:59;;;;;;;2.77;2.10;;;20.10;61.50;21.10;101424.00;;;;5096871;28;20225;-44
2022/06/28 08:05:25;;;;;;;2.30;2.10;;;20.20;62.30;21.10;101428.00;;;;5102828;28;20561;-43
2022/06/28 08:07:51;;;;;;;4.50;2.40;;;20.10;61.40;21.10;101430.00;;;;4884627;28;20454;-44
2022/06/28 08:10:17;;;;;;;5.07;2.33;;;20.10;61.70;21.10;101428.00;;;;5087908;28;20177;-43
2022/06/28 08:12:43;;;;;;;3.03;2.20;;;20.10;62.10;21.10;101426.00;;;;5087813;28;20552;-43
2022/06/28 08:15:09;;;;;;;4.80;2.40;;;20.10;62.90;21.10;101425.00;;;;5087525;28;20242;-42
2022/06/28 08:17:35;;;;;;;2.47;1.90;;;20.10;63.40;21.10;101421.00;;;;5087942;28;20228;-43
2022/06/28 08:20:01;;;;;;;2.23;1.90;;;20.10;64.90;21.10;101414.00;;;;5085574;28;20666;-44
2022/06/28 08:22:26;;;;;;;2.40;2.20;;;20.10;64.10;21.10;101407.00;;;;5075698;28;20201;-43
2022/06/28 08:24:52;;;;;;;3.20;2.10;;;20.10;63.10;21.10;101412.00;;;;5081962;28;20196;-43
2022/06/28 08:27:18;;;;;;;2.70;2.30;;;20.10;65.10;21.10;101400.00;;;;5082029;28;20177;-44
2022/06/28 08:29:45;;;;;;;2.40;2.00;;;20.10;64.10;21.10;101406.00;;;;5089929;28;20177;-44
2022/06/28 08:32:11;;;;;;;2.97;2.00;;;20.10;64.70;21.10;101403.00;;;;5090586;28;20760;-44
2022/06/28 08:34:37;;;;;;;5.57;2.30;;;20.10;63.10;21.20;101399.00;;;;5092420;28;20276;-43
2022/06/28 08:37:04;;;;;;;3.23;2.20;;;20.10;64.00;21.20;101403.00;;;;5090763;28;20268;-45
2022/06/28 08:39:30;;;;;;;2.90;2.10;;;20.10;62.70;21.20;101404.00;;;;5090450;28;20228;-43
2022/06/28 08:41:55;;;;;;;2.77;2.20;;;20.10;62.60;21.10;101401.00;;;;5090807;28;20315;-43
2022/06/28 08:44:21;;;;;;;3.70;2.10;;;20.10;62.30;21.10;101399.00;;;;5089466;28;20235;-43
2022/06/28 08:46:53;;;;;;;2.90;2.40;;;20.10;62.30;21.20;101397.00;;;;5106769;28;20169;-43
2022/06/28 08:49:49;;;;;;;2.63;2.17;;;20.10;62.40;21.10;101391.00;;;;5106422;28;20179;-43
2022/06/28 08:52:14;;;;;;;3.27;2.20;;;20.10;63.30;21.10;101378.00;;;;5092270;28;20555;-43
2022/06/28 08:54:41;;;;;;;2.47;2.00;;;20.10;63.50;21.10;101403.00;;;;5106213;28;20189;-44
2022/06/28 08:57:07;;;;;;;2.83;2.20;;;20.10;62.30;21.10;101389.00;;;;5090410;28;20760;-44
2022/06/28 08:59:36;;;;;;;2.73;2.00;;;20.10;62.30;21.10;101388.00;;;;5089864;28;20199;-44
2022/06/28 09:02:06;;;;;;;2.67;2.10;;;20.10;63.70;21.20;101389.00;;;;4999083;27;20173;-43
2022/06/28 09:04:32;;;;;;;4.03;2.30;;;20.20;64.20;21.20;101387.00;;;;5089442;28;20186;-43
2022/06/28 09:06:58;;;;;;;3.67;2.10;;;20.20;63.50;21.20;101382.00;;;;5090688;28;20169;-43
2022/06/28 09:09:25;;;;;;;5.57;2.50;;;20.20;64.10;21.20;101374.00;;;;5093012;28;20177;-43
2022/06/28 09:11:52;;;;;;;12.93;2.60;;;20.20;66.60;21.20;101367.00;;;;5104283;28;20168;-46
2022/06/28 09:14:27;;;;;;;3.63;2.30;;;20.30;65.70;21.20;101355.00;;;;5105147;28;20179;-43
2022/06/28 09:16:55;;;;;;;7.70;2.67;;;20.30;64.00;21.20;101373.00;;;;5095592;28;20238;-43
2022/06/28 09:19:35;;;;;;;12.50;3.50;;;20.20;62.50;21.30;101363.00;;;;5105631;28;20187;-48
2022/06/28 09:22:04;;;;;;;8.10;3.33;;;20.20;65.90;21.30;101376.00;;;;5111488;28;20180;-44
2022/06/28 09:24:30;;;;;;;7.87;3.00;;;20.30;67.00;21.30;101365.00;;;;5097248;28;20192;-43
2022/06/28 09:27:06;;;;;;;7.30;2.70;;;20.30;65.30;21.30;101358.00;;;;5090279;28;20689;-44
2022/06/28 09:29:50;;;;;;;7.00;2.80;;;20.30;67.00;21.30;101363.00;;;;5089470;28;20784;-42
2022/06/28 09:32:16;;;;;;;7.27;2.80;;;20.40;67.60;21.30;101359.00;;;;5108380;28;20180;-42
2022/06/28 09:35:11;;;;;;;7.07;2.77;;;20.50;68.10;21.40;101359.00;;;;5110625;28;20197;-42
2022/06/28 09:40:21;;;;;;;4.97;2.50;;;20.60;68.70;21.40;101364.00;;;;5090091;28;20640;-43
2022/06/28 09:43:06;;;;;;;5.03;2.20;;;20.60;68.80;21.50;101352.00;;;;5089535;28;20197;-42
2022/06/28 09:45:33;;;;;;;3.57;2.20;;;20.70;68.80;21.50;101357.00;;;;5089322;28;20297;-43
2022/06/28 09:47:59;;;;;;;4.07;2.20;;;20.70;68.90;21.50;101347.00;;;;5089647;28;20246;-43
2022/06/28 09:50:24;;;;;;;4.93;2.20;;;20.80;69.90;21.60;101350.00;;;;5105269;28;20629;-43
2022/06/28 09:52:51;;;;;;;3.63;2.20;;;20.70;69.10;21.60;101342.00;;;;5089935;28;20169;-43
2022/06/28 09:55:17;;;;;;;5.40;2.30;;;20.70;68.70;21.60;101336.00;;;;5089438;28;20223;-43
2022/06/28 09:57:47;;;;;;;2.87;2.20;;;20.70;69.10;21.60;101337.00;;;;5089364;28;20227;-43
2022/06/28 10:00:15;;;;;;;3.17;2.10;;;20.70;69.40;21.60;101335.00;;;;5089574;28;20201;-43
2022/06/28 10:02:42;;;;;;;3.17;1.80;;;20.80;69.60;21.70;101333.00;;;;5089452;28;20177;-43
2022/06/28 10:05:11;;;;;;;4.17;2.20;;;20.80;69.50;21.70;101331.00;;;;5089341;28;20847;-43
2022/06/28 10:07:37;;;;;;;4.50;2.20;;;20.90;69.40;21.70;101325.00;;;;5088750;28;20205;-43
2022/06/28 10:10:04;;;;;;;2.27;1.93;;;20.80;69.20;21.70;101331.00;;;;5088721;28;20234;-43
2022/06/28 10:15:23;;;;;;;3.23;2.10;;;20.90;69.40;21.80;101312.00;;;;5102647;28;20285;-43
2022/06/28 10:18:04;;;;;;;3.77;2.20;;;20.90;70.00;21.80;101313.00;;;;5104466;28;20535;-43
2022/06/28 10:20:38;;;;;;;3.43;1.97;;;21.00;70.00;21.80;101320.00;;;;5088933;28;20442;-43
2022/06/28 10:23:26;;;;;;;2.97;2.23;;;21.00;69.80;21.90;101305.00;;;;5104340;28;20531;-43
2022/06/28 10:26:04;;;;;;;3.07;1.87;;;21.00;70.50;21.90;101298.00;;;;5089095;28;20219;-43
2022/06/28 10:28:39;;;;;;;2.97;1.77;;;21.10;71.40;21.90;101309.00;;;;5088702;28;20169;-43
2022/06/28 10:31:23;;;;;;;2.40;2.00;;;21.10;70.10;21.90;101302.00;;;;5104444;28;20156;-42
2022/06/28 10:33:51;;;;;;;2.47;1.93;;;21.10;70.40;21.90;101293.00;;;;5089076;28;20169;-42
2022/06/28 10:36:18;;;;;;;2.40;1.80;;;21.10;70.50;22.00;101293.00;;;;5088839;28;20248;-43
2022/06/28 10:39:09;;;;;;;2.10;1.90;;;21.20;70.70;22.00;101293.00;;;;5104261;28;20219;-43
2022/06/28 10:42:07;;;;;;;2.40;1.80;;;21.20;70.70;22.00;101279.00;;;;5088139;28;20181;-43
2022/06/28 10:44:33;;;;;;;2.33;1.80;;;21.20;70.60;22.00;101286.00;;;;5087221;28;20207;-43
2022/06/28 10:47:01;;;;;;;2.73;1.90;;;21.20;70.60;22.10;101276.00;;;;5088364;28;20518;-43
2022/06/28 10:50:03;;;;;;;4.30;2.00;;;21.30;71.40;22.10;101278.00;;;;5047063;28;20665;-44
2022/06/28 10:52:33;;;;;;;2.43;1.83;;;21.30;70.60;22.10;101275.00;;;;5075883;28;20277;-44
2022/06/28 10:54:58;;;;;;;1.90;1.70;;;21.30;70.90;22.10;101271.00;;;;5071973;28;20188;-43
2022/06/28 10:57:26;;;;;;;2.37;1.70;;;21.40;71.30;22.20;101272.00;;;;5088053;28;20642;-43
2022/06/28 10:59:55;;;;;;;2.47;1.80;;;21.40;70.90;22.20;101278.00;;;;5088154;28;20223;-43
2022/06/28 11:02:21;;;;;;;2.30;1.90;;;21.40;71.40;22.30;101269.00;;;;5089007;28;20174;-43